EZY45VX EGKK-GVAC
Flight info
| Callsign | EZY45VX |
|---|---|
| Flight time | 5h 42m |
| Altitude | 33000 |
| Route | DCT NOVMA L620 SAM M195 LORKU DCT EBOMO/N0451F350 DCT BALDA DCT ABUPI DCT EKMAR DCT BEXAL UN866 OSDIV/N0448F370 UN866 KONBA DCT GURKA DCT BRICK DCT GOMER N866 USOTI/N0450F380 N866 TENPA DCT DIMKI DCT RATIX DCT |
| Aircraft | A320/M-SDE3FGHIRWY/LB1 |
Departure
| Time | 2026-04-07 09:57 |
|---|---|
| Airport | London Gatwick Airport (EGKK) |
Arrival
| Time | 2026-04-07 15:39 |
|---|---|
| Airport | Amílcar Cabral International Airport (GVAC) |
| Time | Latitude | Longitude | Altitude | Speed | Heading |
|---|---|---|---|---|---|
| 2026-04-07 09:19 | 51.15572 | -0.17761 | 205 ft | 0 kts | 347° |
| 2026-04-07 09:43 | 51.15558 | -0.17756 | 215 ft | 4 kts | 347° |
| 2026-04-07 09:44 | 51.15532 | -0.17746 | 216 ft | 4 kts | 336° |
| 2026-04-07 09:44 | 51.15515 | -0.17721 | 210 ft | 4 kts | 282° |
| 2026-04-07 09:44 | 51.15515 | -0.17688 | 209 ft | 2 kts | 258° |
| 2026-04-07 09:44 | 51.15520 | -0.17648 | 215 ft | 4 kts | 257° |
| 2026-04-07 09:45 | 51.15523 | -0.17628 | 214 ft | 0 kts | 257° |
| 2026-04-07 09:49 | 51.15522 | -0.17633 | 213 ft | 3 kts | 257° |
| 2026-04-07 09:49 | 51.15505 | -0.17763 | 208 ft | 17 kts | 260° |
| 2026-04-07 09:49 | 51.15483 | -0.17930 | 208 ft | 14 kts | 253° |
| 2026-04-07 09:49 | 51.15461 | -0.18077 | 209 ft | 14 kts | 257° |
| 2026-04-07 09:50 | 51.15438 | -0.18152 | 210 ft | 10 kts | 215° |
| 2026-04-07 09:50 | 51.15360 | -0.18139 | 205 ft | 17 kts | 167° |
| 2026-04-07 09:50 | 51.15233 | -0.18103 | 205 ft | 16 kts | 191° |
| 2026-04-07 09:50 | 51.15192 | -0.18241 | 209 ft | 14 kts | 258° |
| 2026-04-07 09:51 | 51.15173 | -0.18426 | 205 ft | 17 kts | 258° |
| 2026-04-07 09:51 | 51.15142 | -0.18650 | 209 ft | 22 kts | 258° |
| 2026-04-07 09:51 | 51.15112 | -0.18872 | 213 ft | 19 kts | 258° |
| 2026-04-07 09:51 | 51.15082 | -0.19092 | 210 ft | 24 kts | 257° |
| 2026-04-07 09:52 | 51.15046 | -0.19361 | 207 ft | 24 kts | 258° |
| 2026-04-07 09:52 | 51.15011 | -0.19606 | 213 ft | 22 kts | 257° |
| 2026-04-07 09:52 | 51.14981 | -0.19830 | 209 ft | 20 kts | 258° |
| 2026-04-07 09:52 | 51.14952 | -0.20033 | 209 ft | 18 kts | 257° |
| 2026-04-07 09:53 | 51.14927 | -0.20216 | 213 ft | 16 kts | 258° |
| 2026-04-07 09:53 | 51.14905 | -0.20380 | 204 ft | 14 kts | 257° |
| 2026-04-07 09:53 | 51.14884 | -0.20523 | 212 ft | 12 kts | 256° |
| 2026-04-07 09:53 | 51.14841 | -0.20646 | 209 ft | 13 kts | 208° |
| 2026-04-07 09:54 | 51.14771 | -0.20720 | 206 ft | 11 kts | 235° |
| 2026-04-07 09:54 | 51.14751 | -0.20827 | 214 ft | 9 kts | 257° |
| 2026-04-07 09:54 | 51.14728 | -0.20979 | 208 ft | 19 kts | 256° |
| 2026-04-07 09:54 | 51.14702 | -0.21175 | 205 ft | 17 kts | 258° |
| 2026-04-07 09:55 | 51.14671 | -0.21325 | 214 ft | 11 kts | 221° |
| 2026-04-07 09:55 | 51.14604 | -0.21325 | 205 ft | 9 kts | 167° |
| 2026-04-07 09:55 | 51.14548 | -0.21285 | 212 ft | 10 kts | 140° |
| 2026-04-07 09:55 | 51.14519 | -0.21181 | 206 ft | 10 kts | 88° |
| 2026-04-07 09:56 | 51.14524 | -0.21147 | 206 ft | 0 kts | 78° |
| 2026-04-07 09:56 | 51.14524 | -0.21144 | 206 ft | 2 kts | 78° |
| 2026-04-07 09:56 | 51.14564 | -0.20860 | 208 ft | 60 kts | 77° |
| 2026-04-07 09:56 | 51.14697 | -0.19881 | 208 ft | 118 kts | 77° |
| 2026-04-07 09:57 | 51.14909 | -0.18349 | 214 ft | 162 kts | 77° |
| 2026-04-07 09:57 | 51.15156 | -0.16572 | 755 ft | 165 kts | 79° |
| 2026-04-07 09:57 | 51.15400 | -0.14759 | 1407 ft | 172 kts | 82° |
| 2026-04-07 09:57 | 51.15661 | -0.12812 | 1787 ft | 186 kts | 83° |
| 2026-04-07 09:58 | 51.15938 | -0.10776 | 2304 ft | 191 kts | 83° |
| 2026-04-07 09:58 | 51.16228 | -0.08656 | 2825 ft | 202 kts | 82° |
| 2026-04-07 09:58 | 51.16673 | -0.06429 | 3252 ft | 226 kts | 60° |
| 2026-04-07 09:58 | 51.17942 | -0.04838 | 3702 ft | 251 kts | 19° |
| 2026-04-07 09:59 | 51.19733 | -0.04594 | 4240 ft | 266 kts | 354° |
| 2026-04-07 09:59 | 51.21457 | -0.05650 | 4931 ft | 271 kts | 319° |
| 2026-04-07 09:59 | 51.22510 | -0.08082 | 5694 ft | 268 kts | 284° |
| 2026-04-07 09:59 | 51.22655 | -0.10991 | 6511 ft | 264 kts | 259° |
| 2026-04-07 10:00 | 51.22313 | -0.13930 | 7084 ft | 274 kts | 258° |
| 2026-04-07 10:00 | 51.21954 | -0.16947 | 7773 ft | 279 kts | 256° |
| 2026-04-07 10:00 | 51.21597 | -0.19991 | 8540 ft | 280 kts | 256° |
| 2026-04-07 10:00 | 51.21239 | -0.23072 | 9272 ft | 284 kts | 256° |
| 2026-04-07 10:01 | 51.20879 | -0.26178 | 10022 ft | 286 kts | 256° |
| 2026-04-07 10:01 | 51.20515 | -0.29317 | 10675 ft | 290 kts | 256° |
| 2026-04-07 10:01 | 51.20147 | -0.32504 | 11332 ft | 293 kts | 256° |
| 2026-04-07 10:01 | 51.19771 | -0.35717 | 11979 ft | 296 kts | 256° |
| 2026-04-07 10:02 | 51.19363 | -0.38954 | 12633 ft | 298 kts | 255° |
| 2026-04-07 10:02 | 51.18937 | -0.42167 | 13267 ft | 301 kts | 254° |
| 2026-04-07 10:02 | 51.18497 | -0.45449 | 13900 ft | 304 kts | 254° |
| 2026-04-07 10:02 | 51.18055 | -0.48759 | 14476 ft | 307 kts | 255° |
| 2026-04-07 10:03 | 51.17607 | -0.52111 | 14855 ft | 317 kts | 253° |
| 2026-04-07 10:03 | 51.16867 | -0.55481 | 15096 ft | 327 kts | 244° |
| 2026-04-07 10:03 | 51.15967 | -0.58839 | 15595 ft | 332 kts | 244° |
| 2026-04-07 10:03 | 51.15061 | -0.62237 | 16140 ft | 334 kts | 244° |
| 2026-04-07 10:04 | 51.14149 | -0.65661 | 16712 ft | 337 kts | 244° |
| 2026-04-07 10:04 | 51.13230 | -0.69114 | 17268 ft | 340 kts | 244° |
| 2026-04-07 10:04 | 51.12308 | -0.72581 | 17828 ft | 342 kts | 244° |
| 2026-04-07 10:04 | 51.11371 | -0.76091 | 18366 ft | 345 kts | 244° |
| 2026-04-07 10:05 | 51.10429 | -0.79608 | 18871 ft | 347 kts | 244° |
| 2026-04-07 10:05 | 51.09466 | -0.83186 | 19085 ft | 358 kts | 244° |
| 2026-04-07 10:05 | 51.08467 | -0.86889 | 19257 ft | 370 kts | 244° |
| 2026-04-07 10:05 | 51.07443 | -0.90681 | 19596 ft | 376 kts | 244° |
| 2026-04-07 10:06 | 51.06396 | -0.94561 | 19782 ft | 386 kts | 244° |
| 2026-04-07 10:06 | 51.05332 | -0.98502 | 20174 ft | 389 kts | 245° |
| 2026-04-07 10:06 | 51.04261 | -1.02468 | 20605 ft | 391 kts | 245° |
| 2026-04-07 10:06 | 51.03183 | -1.06462 | 20955 ft | 395 kts | 244° |
| 2026-04-07 10:07 | 51.02097 | -1.10467 | 21402 ft | 396 kts | 245° |
| 2026-04-07 10:07 | 51.01014 | -1.14445 | 21870 ft | 396 kts | 245° |
| 2026-04-07 10:07 | 50.99916 | -1.18467 | 22314 ft | 398 kts | 244° |
| 2026-04-07 10:07 | 50.98809 | -1.22513 | 22692 ft | 401 kts | 245° |
| 2026-04-07 10:08 | 50.97700 | -1.26577 | 23062 ft | 403 kts | 245° |
| 2026-04-07 10:08 | 50.96475 | -1.30586 | 23443 ft | 404 kts | 238° |
| 2026-04-07 10:08 | 50.94825 | -1.34198 | 23831 ft | 404 kts | 227° |
| 2026-04-07 10:08 | 50.92787 | -1.37266 | 24144 ft | 405 kts | 217° |
| 2026-04-07 10:09 | 50.90459 | -1.39792 | 24472 ft | 406 kts | 213° |
| 2026-04-07 10:09 | 50.88088 | -1.42246 | 24829 ft | 408 kts | 213° |
| 2026-04-07 10:09 | 50.85711 | -1.44714 | 25144 ft | 409 kts | 213° |
| 2026-04-07 10:09 | 50.83332 | -1.47188 | 25481 ft | 409 kts | 213° |
| 2026-04-07 10:10 | 50.80947 | -1.49669 | 25832 ft | 410 kts | 213° |
| 2026-04-07 10:10 | 50.78563 | -1.52143 | 26142 ft | 411 kts | 213° |
| 2026-04-07 10:10 | 50.76159 | -1.54630 | 26390 ft | 414 kts | 213° |
| 2026-04-07 10:10 | 50.73734 | -1.57139 | 26643 ft | 417 kts | 213° |
| 2026-04-07 10:11 | 50.71295 | -1.59658 | 26900 ft | 420 kts | 213° |
| 2026-04-07 10:11 | 50.68843 | -1.62186 | 27156 ft | 422 kts | 213° |
| 2026-04-07 10:11 | 50.66377 | -1.64727 | 27413 ft | 424 kts | 213° |
| 2026-04-07 10:11 | 50.63925 | -1.67250 | 27678 ft | 426 kts | 213° |
| 2026-04-07 10:12 | 50.61437 | -1.69810 | 27915 ft | 428 kts | 213° |
| 2026-04-07 10:12 | 50.58943 | -1.72373 | 28171 ft | 429 kts | 213° |
| 2026-04-07 10:12 | 50.56439 | -1.74938 | 28448 ft | 430 kts | 213° |
| 2026-04-07 10:12 | 50.53930 | -1.77501 | 28698 ft | 431 kts | 213° |
| 2026-04-07 10:13 | 50.51411 | -1.80070 | 28915 ft | 432 kts | 213° |
| 2026-04-07 10:13 | 50.48886 | -1.82641 | 29129 ft | 434 kts | 213° |
| 2026-04-07 10:13 | 50.46344 | -1.85229 | 29363 ft | 436 kts | 213° |
| 2026-04-07 10:13 | 50.43800 | -1.87821 | 29588 ft | 437 kts | 213° |
| 2026-04-07 10:14 | 50.41247 | -1.90420 | 29809 ft | 438 kts | 213° |
| 2026-04-07 10:14 | 50.38684 | -1.93022 | 30019 ft | 440 kts | 213° |
| 2026-04-07 10:14 | 50.36118 | -1.95623 | 30258 ft | 439 kts | 213° |
| 2026-04-07 10:14 | 50.33554 | -1.98220 | 30442 ft | 439 kts | 213° |
| 2026-04-07 10:15 | 50.30987 | -2.00816 | 30632 ft | 439 kts | 213° |
| 2026-04-07 10:15 | 50.28431 | -2.03396 | 30812 ft | 437 kts | 213° |
| 2026-04-07 10:15 | 50.25878 | -2.05971 | 31014 ft | 437 kts | 213° |
| 2026-04-07 10:15 | 50.23313 | -2.08550 | 31211 ft | 437 kts | 212° |
| 2026-04-07 10:16 | 50.20755 | -2.11080 | 31408 ft | 435 kts | 212° |
| 2026-04-07 10:16 | 50.18183 | -2.13585 | 31612 ft | 435 kts | 212° |
| 2026-04-07 10:16 | 50.15614 | -2.16067 | 31814 ft | 435 kts | 211° |
| 2026-04-07 10:16 | 50.13045 | -2.18543 | 32020 ft | 434 kts | 211° |
| 2026-04-07 10:17 | 50.10480 | -2.21020 | 32213 ft | 434 kts | 211° |
| 2026-04-07 10:17 | 50.07920 | -2.23494 | 32428 ft | 433 kts | 211° |
| 2026-04-07 10:17 | 50.05367 | -2.25961 | 32632 ft | 432 kts | 211° |
| 2026-04-07 10:17 | 50.02846 | -2.28398 | 32847 ft | 431 kts | 211° |
| 2026-04-07 10:18 | 50.00302 | -2.30857 | 33060 ft | 430 kts | 211° |
| 2026-04-07 10:18 | 49.97763 | -2.33312 | 33140 ft | 430 kts | 211° |
| 2026-04-07 10:18 | 49.92647 | -2.38245 | 33125 ft | 436 kts | 211° |
| 2026-04-07 10:19 | 49.84887 | -2.45700 | 33118 ft | 438 kts | 211° |
| 2026-04-07 10:20 | 49.79703 | -2.50678 | 33117 ft | 438 kts | 211° |
| 2026-04-07 10:20 | 49.74516 | -2.55646 | 33112 ft | 438 kts | 211° |
| 2026-04-07 10:21 | 49.69327 | -2.60587 | 33104 ft | 438 kts | 211° |
| 2026-04-07 10:21 | 49.64126 | -2.65531 | 33098 ft | 439 kts | 211° |
| 2026-04-07 10:22 | 49.58929 | -2.70473 | 33109 ft | 439 kts | 211° |
| 2026-04-07 10:22 | 49.53769 | -2.75371 | 33118 ft | 438 kts | 211° |
| 2026-04-07 10:23 | 49.48577 | -2.80270 | 33118 ft | 437 kts | 210° |
| 2026-04-07 10:23 | 49.43385 | -2.85152 | 33102 ft | 437 kts | 210° |
| 2026-04-07 10:24 | 49.38198 | -2.90029 | 33089 ft | 437 kts | 210° |
| 2026-04-07 10:24 | 49.33006 | -2.94888 | 33088 ft | 437 kts | 210° |
| 2026-04-07 10:25 | 49.27821 | -2.99738 | 33084 ft | 437 kts | 210° |
| 2026-04-07 10:25 | 49.22619 | -3.04599 | 33062 ft | 437 kts | 210° |
| 2026-04-07 10:26 | 49.17417 | -3.09438 | 33063 ft | 438 kts | 210° |
| 2026-04-07 10:26 | 49.12211 | -3.14262 | 33085 ft | 437 kts | 210° |
| 2026-04-07 10:27 | 49.07021 | -3.19064 | 33074 ft | 436 kts | 210° |
| 2026-04-07 10:27 | 49.01836 | -3.23856 | 33079 ft | 435 kts | 210° |
| 2026-04-07 10:28 | 48.96687 | -3.28600 | 33074 ft | 435 kts | 210° |
| 2026-04-07 10:28 | 48.91512 | -3.33359 | 33067 ft | 434 kts | 209° |
| 2026-04-07 10:29 | 48.86337 | -3.38099 | 33068 ft | 434 kts | 209° |
| 2026-04-07 10:29 | 48.81162 | -3.42832 | 33061 ft | 434 kts | 209° |
| 2026-04-07 10:30 | 48.75990 | -3.47555 | 33056 ft | 434 kts | 209° |
| 2026-04-07 10:30 | 48.70817 | -3.52268 | 33089 ft | 433 kts | 209° |
| 2026-04-07 10:31 | 48.65666 | -3.56947 | 33080 ft | 431 kts | 209° |
| 2026-04-07 10:31 | 48.60525 | -3.61593 | 33070 ft | 430 kts | 209° |
| 2026-04-07 10:32 | 48.55394 | -3.66226 | 33046 ft | 430 kts | 209° |
| 2026-04-07 10:32 | 48.50264 | -3.70851 | 33037 ft | 430 kts | 209° |
| 2026-04-07 10:33 | 48.45131 | -3.75467 | 33043 ft | 430 kts | 209° |
| 2026-04-07 10:33 | 48.39994 | -3.80067 | 33035 ft | 430 kts | 209° |
| 2026-04-07 10:34 | 48.34888 | -3.84636 | 33026 ft | 430 kts | 209° |
| 2026-04-07 10:34 | 48.29716 | -3.89262 | 33050 ft | 430 kts | 208° |
| 2026-04-07 10:35 | 48.24605 | -3.93810 | 33056 ft | 429 kts | 208° |
| 2026-04-07 10:35 | 48.19468 | -3.98374 | 33058 ft | 429 kts | 208° |
| 2026-04-07 10:36 | 48.14327 | -4.02935 | 33060 ft | 429 kts | 208° |
| 2026-04-07 10:36 | 48.10059 | -4.06708 | 33055 ft | 429 kts | 208° |
| 2026-04-07 10:37 | 48.04915 | -4.11236 | 33053 ft | 429 kts | 208° |
| 2026-04-07 10:37 | 47.99775 | -4.15773 | 33059 ft | 429 kts | 208° |
| 2026-04-07 10:38 | 47.94633 | -4.20302 | 33059 ft | 429 kts | 208° |
| 2026-04-07 10:38 | 47.89484 | -4.24816 | 33081 ft | 429 kts | 208° |
| 2026-04-07 10:39 | 47.84341 | -4.29307 | 33072 ft | 428 kts | 207° |
| 2026-04-07 10:39 | 47.78910 | -4.32575 | 33053 ft | 423 kts | 194° |
| 2026-04-07 10:40 | 47.73227 | -4.34896 | 33044 ft | 423 kts | 194° |
| 2026-04-07 10:40 | 47.67556 | -4.37219 | 33041 ft | 423 kts | 194° |
| 2026-04-07 10:41 | 47.61887 | -4.39525 | 33034 ft | 422 kts | 194° |
| 2026-04-07 10:41 | 47.56220 | -4.41834 | 33032 ft | 422 kts | 194° |
| 2026-04-07 10:42 | 47.50551 | -4.44138 | 33027 ft | 422 kts | 194° |
| 2026-04-07 10:42 | 47.44882 | -4.46440 | 33025 ft | 422 kts | 194° |
| 2026-04-07 10:43 | 47.39212 | -4.48727 | 33026 ft | 422 kts | 194° |
| 2026-04-07 10:43 | 47.33541 | -4.51010 | 33021 ft | 422 kts | 194° |
| 2026-04-07 10:44 | 47.27871 | -4.53286 | 33018 ft | 422 kts | 194° |
| 2026-04-07 10:44 | 47.22203 | -4.55566 | 33018 ft | 422 kts | 194° |
| 2026-04-07 10:45 | 47.16571 | -4.57822 | 33016 ft | 422 kts | 193° |
| 2026-04-07 10:45 | 47.10862 | -4.60098 | 33013 ft | 422 kts | 194° |
| 2026-04-07 10:46 | 47.05194 | -4.62365 | 33010 ft | 422 kts | 193° |
| 2026-04-07 10:46 | 46.99555 | -4.64604 | 33010 ft | 422 kts | 193° |
| 2026-04-07 10:47 | 46.93875 | -4.66855 | 33011 ft | 422 kts | 193° |
| 2026-04-07 10:47 | 46.88200 | -4.69108 | 33014 ft | 422 kts | 193° |
| 2026-04-07 10:48 | 46.82533 | -4.71348 | 33023 ft | 421 kts | 193° |
| 2026-04-07 10:48 | 46.76874 | -4.73582 | 33029 ft | 421 kts | 193° |
| 2026-04-07 10:49 | 46.71226 | -4.75812 | 33027 ft | 420 kts | 193° |
| 2026-04-07 10:49 | 46.65582 | -4.78030 | 33030 ft | 420 kts | 193° |
| 2026-04-07 10:50 | 46.59942 | -4.80232 | 33025 ft | 420 kts | 193° |
| 2026-04-07 10:50 | 46.54296 | -4.82444 | 33022 ft | 419 kts | 193° |
| 2026-04-07 10:51 | 46.48702 | -4.84623 | 33045 ft | 419 kts | 193° |
| 2026-04-07 10:51 | 46.43070 | -4.86818 | 33054 ft | 419 kts | 193° |
| 2026-04-07 10:52 | 46.37449 | -4.89006 | 33047 ft | 418 kts | 193° |
| 2026-04-07 10:52 | 46.31795 | -4.91194 | 33040 ft | 417 kts | 192° |
| 2026-04-07 10:53 | 46.26224 | -4.93339 | 33034 ft | 417 kts | 192° |
| 2026-04-07 10:53 | 46.20614 | -4.95510 | 33063 ft | 417 kts | 193° |
| 2026-04-07 10:53 | 46.17822 | -4.96595 | 33316 ft | 416 kts | 192° |
| 2026-04-07 10:54 | 46.15028 | -4.97675 | 33588 ft | 415 kts | 192° |
| 2026-04-07 10:54 | 46.12241 | -4.98741 | 33862 ft | 414 kts | 192° |
| 2026-04-07 10:54 | 46.09462 | -4.99801 | 34121 ft | 412 kts | 192° |
| 2026-04-07 10:54 | 46.06693 | -5.00863 | 34356 ft | 411 kts | 192° |
| 2026-04-07 10:55 | 46.03927 | -5.01923 | 34599 ft | 410 kts | 192° |
| 2026-04-07 10:55 | 46.01171 | -5.02982 | 34856 ft | 409 kts | 193° |
| 2026-04-07 10:55 | 45.98418 | -5.04043 | 34986 ft | 411 kts | 193° |
| 2026-04-07 10:56 | 45.92842 | -5.06186 | 35027 ft | 419 kts | 193° |
| 2026-04-07 10:56 | 45.87192 | -5.08335 | 35027 ft | 420 kts | 193° |
| 2026-04-07 10:57 | 45.81534 | -5.10487 | 35027 ft | 421 kts | 192° |
| 2026-04-07 10:57 | 45.75882 | -5.12626 | 35022 ft | 418 kts | 193° |
| 2026-04-07 10:58 | 45.70300 | -5.14742 | 35028 ft | 417 kts | 193° |
| 2026-04-07 10:58 | 45.64689 | -5.16867 | 35030 ft | 417 kts | 193° |
| 2026-04-07 10:59 | 45.59072 | -5.18979 | 35032 ft | 417 kts | 193° |
| 2026-04-07 10:59 | 45.53456 | -5.21091 | 35038 ft | 417 kts | 193° |
| 2026-04-07 11:00 | 45.47851 | -5.23203 | 35035 ft | 417 kts | 193° |
| 2026-04-07 11:00 | 45.42241 | -5.25310 | 35039 ft | 416 kts | 193° |
| 2026-04-07 11:01 | 45.36667 | -5.27397 | 35043 ft | 416 kts | 193° |
| 2026-04-07 11:01 | 45.31069 | -5.29483 | 35042 ft | 416 kts | 193° |
| 2026-04-07 11:02 | 45.25463 | -5.31571 | 35044 ft | 416 kts | 193° |
| 2026-04-07 11:02 | 45.19869 | -5.33663 | 35044 ft | 416 kts | 193° |
| 2026-04-07 11:03 | 45.14265 | -5.35741 | 35041 ft | 416 kts | 193° |
| 2026-04-07 11:03 | 45.08705 | -5.37802 | 35058 ft | 416 kts | 193° |
| 2026-04-07 11:04 | 45.03103 | -5.39864 | 35037 ft | 416 kts | 193° |
| 2026-04-07 11:04 | 44.97484 | -5.41931 | 35032 ft | 416 kts | 193° |
| 2026-04-07 11:05 | 44.91870 | -5.43999 | 35027 ft | 416 kts | 193° |
| 2026-04-07 11:05 | 44.86262 | -5.46065 | 35027 ft | 417 kts | 193° |
| 2026-04-07 11:06 | 44.80649 | -5.48131 | 35018 ft | 417 kts | 193° |
| 2026-04-07 11:06 | 44.75065 | -5.50171 | 35015 ft | 417 kts | 193° |
| 2026-04-07 11:07 | 44.69435 | -5.52227 | 35013 ft | 417 kts | 193° |
| 2026-04-07 11:07 | 44.63802 | -5.54282 | 35011 ft | 417 kts | 193° |
| 2026-04-07 11:08 | 44.58311 | -5.56946 | 35011 ft | 419 kts | 201° |
| 2026-04-07 11:08 | 44.53007 | -5.60231 | 35006 ft | 420 kts | 201° |
| 2026-04-07 11:09 | 44.47666 | -5.63533 | 35004 ft | 420 kts | 201° |
| 2026-04-07 11:09 | 44.42312 | -5.66834 | 35007 ft | 420 kts | 201° |
| 2026-04-07 11:10 | 44.36959 | -5.70124 | 35004 ft | 420 kts | 201° |
| 2026-04-07 11:10 | 44.31605 | -5.73412 | 35010 ft | 421 kts | 202° |
| 2026-04-07 11:11 | 44.26238 | -5.76700 | 35009 ft | 421 kts | 201° |
| 2026-04-07 11:11 | 44.20916 | -5.79952 | 34998 ft | 420 kts | 201° |
| 2026-04-07 11:12 | 44.15565 | -5.83217 | 34995 ft | 420 kts | 201° |
| 2026-04-07 11:12 | 44.10210 | -5.86485 | 34993 ft | 420 kts | 201° |
| 2026-04-07 11:13 | 44.04853 | -5.89739 | 34997 ft | 420 kts | 201° |
| 2026-04-07 11:13 | 43.99501 | -5.92983 | 34993 ft | 419 kts | 201° |
| 2026-04-07 11:14 | 43.94150 | -5.96223 | 34982 ft | 419 kts | 201° |
| 2026-04-07 11:14 | 43.88809 | -5.99448 | 34977 ft | 419 kts | 201° |
| 2026-04-07 11:15 | 43.83464 | -6.02660 | 34977 ft | 419 kts | 200° |
| 2026-04-07 11:15 | 43.78123 | -6.05875 | 34966 ft | 419 kts | 201° |
| 2026-04-07 11:16 | 43.72775 | -6.09093 | 34967 ft | 419 kts | 201° |
| 2026-04-07 11:16 | 43.67423 | -6.12303 | 34954 ft | 420 kts | 201° |
| 2026-04-07 11:17 | 43.62059 | -6.15510 | 34942 ft | 420 kts | 201° |
| 2026-04-07 11:17 | 43.56685 | -6.18719 | 34959 ft | 421 kts | 200° |
| 2026-04-07 11:18 | 43.51304 | -6.21925 | 34960 ft | 421 kts | 200° |
| 2026-04-07 11:18 | 43.45956 | -6.25108 | 34964 ft | 421 kts | 200° |
| 2026-04-07 11:19 | 43.40586 | -6.28287 | 34973 ft | 419 kts | 200° |
| 2026-04-07 11:19 | 43.35230 | -6.31460 | 34975 ft | 419 kts | 200° |
| 2026-04-07 11:20 | 43.29888 | -6.34626 | 34976 ft | 418 kts | 200° |
| 2026-04-07 11:20 | 43.24551 | -6.37778 | 34950 ft | 417 kts | 199° |
| 2026-04-07 11:21 | 43.19211 | -6.40925 | 34938 ft | 418 kts | 199° |
| 2026-04-07 11:21 | 43.13856 | -6.44068 | 34944 ft | 419 kts | 201° |
| 2026-04-07 11:22 | 43.08485 | -6.47229 | 34988 ft | 421 kts | 200° |
| 2026-04-07 11:22 | 43.03123 | -6.50369 | 34956 ft | 422 kts | 200° |
| 2026-04-07 11:23 | 42.97717 | -6.53531 | 34972 ft | 423 kts | 199° |
| 2026-04-07 11:23 | 42.92309 | -6.56679 | 34969 ft | 423 kts | 200° |
| 2026-04-07 11:24 | 42.86896 | -6.59825 | 34976 ft | 422 kts | 200° |
| 2026-04-07 11:24 | 42.81489 | -6.62970 | 34989 ft | 423 kts | 200° |
| 2026-04-07 11:25 | 42.73385 | -6.67681 | 34988 ft | 422 kts | 200° |
| 2026-04-07 11:25 | 42.68892 | -6.70278 | 34970 ft | 422 kts | 200° |
| 2026-04-07 11:26 | 42.63483 | -6.73392 | 34975 ft | 421 kts | 200° |
| 2026-04-07 11:26 | 42.58085 | -6.76503 | 34969 ft | 421 kts | 200° |
| 2026-04-07 11:27 | 42.52694 | -6.79611 | 34970 ft | 421 kts | 200° |
| 2026-04-07 11:27 | 42.47310 | -6.82705 | 34971 ft | 421 kts | 200° |
| 2026-04-07 11:28 | 42.41907 | -6.85794 | 34994 ft | 421 kts | 199° |
| 2026-04-07 11:28 | 42.36516 | -6.88878 | 34988 ft | 420 kts | 199° |
| 2026-04-07 11:29 | 42.31139 | -6.91952 | 34990 ft | 420 kts | 199° |
| 2026-04-07 11:29 | 42.25755 | -6.95014 | 34987 ft | 420 kts | 199° |
| 2026-04-07 11:30 | 42.20372 | -6.98076 | 34987 ft | 419 kts | 199° |
| 2026-04-07 11:30 | 42.14996 | -7.01130 | 34972 ft | 420 kts | 199° |
| 2026-04-07 11:31 | 42.09648 | -7.04165 | 34974 ft | 420 kts | 199° |
| 2026-04-07 11:31 | 42.04251 | -7.07225 | 34978 ft | 421 kts | 199° |
| 2026-04-07 11:32 | 41.98860 | -7.10283 | 34980 ft | 421 kts | 199° |
| 2026-04-07 11:32 | 41.93464 | -7.13320 | 35010 ft | 420 kts | 199° |
| 2026-04-07 11:33 | 41.88088 | -7.16337 | 34997 ft | 418 kts | 199° |
| 2026-04-07 11:33 | 41.82730 | -7.19339 | 34993 ft | 417 kts | 199° |
| 2026-04-07 11:34 | 41.77385 | -7.22333 | 35029 ft | 416 kts | 198° |
| 2026-04-07 11:34 | 41.72209 | -7.25788 | 34996 ft | 416 kts | 204° |
| 2026-04-07 11:35 | 41.67167 | -7.29596 | 34983 ft | 415 kts | 204° |
| 2026-04-07 11:35 | 41.62136 | -7.33393 | 34977 ft | 415 kts | 204° |
| 2026-04-07 11:36 | 41.57105 | -7.37181 | 34973 ft | 415 kts | 204° |
| 2026-04-07 11:36 | 41.52072 | -7.40954 | 34978 ft | 414 kts | 204° |
| 2026-04-07 11:37 | 41.47045 | -7.44715 | 34961 ft | 414 kts | 204° |
| 2026-04-07 11:37 | 41.42028 | -7.48469 | 34957 ft | 413 kts | 204° |
| 2026-04-07 11:38 | 41.37016 | -7.52216 | 34953 ft | 413 kts | 204° |
| 2026-04-07 11:38 | 41.32033 | -7.55922 | 34951 ft | 413 kts | 204° |
| 2026-04-07 11:39 | 41.27021 | -7.59645 | 34953 ft | 412 kts | 204° |
| 2026-04-07 11:39 | 41.22021 | -7.63355 | 34974 ft | 411 kts | 204° |
| 2026-04-07 11:40 | 41.17026 | -7.67055 | 34964 ft | 411 kts | 204° |
| 2026-04-07 11:40 | 41.12031 | -7.70743 | 34953 ft | 410 kts | 204° |
| 2026-04-07 11:41 | 41.07039 | -7.74423 | 34949 ft | 411 kts | 204° |
| 2026-04-07 11:41 | 41.02034 | -7.78117 | 34938 ft | 412 kts | 204° |
| 2026-04-07 11:42 | 40.97022 | -7.81812 | 34939 ft | 413 kts | 204° |
| 2026-04-07 11:42 | 40.92001 | -7.85505 | 34940 ft | 413 kts | 204° |
| 2026-04-07 11:43 | 40.86974 | -7.89191 | 34941 ft | 413 kts | 204° |
| 2026-04-07 11:43 | 40.81949 | -7.92867 | 34942 ft | 413 kts | 204° |
| 2026-04-07 11:44 | 40.76927 | -7.96543 | 34949 ft | 413 kts | 204° |
| 2026-04-07 11:44 | 40.71905 | -8.00206 | 34950 ft | 413 kts | 204° |
| 2026-04-07 11:45 | 40.66913 | -8.03839 | 34951 ft | 413 kts | 204° |
| 2026-04-07 11:45 | 40.61883 | -8.07493 | 34954 ft | 413 kts | 204° |
| 2026-04-07 11:46 | 40.56855 | -8.11139 | 34955 ft | 412 kts | 204° |
| 2026-04-07 11:46 | 40.51832 | -8.14779 | 34955 ft | 412 kts | 204° |
| 2026-04-07 11:47 | 40.46811 | -8.18410 | 34955 ft | 412 kts | 204° |
| 2026-04-07 11:47 | 40.41788 | -8.22036 | 34955 ft | 412 kts | 204° |
| 2026-04-07 11:48 | 40.36767 | -8.25658 | 34949 ft | 412 kts | 204° |
| 2026-04-07 11:48 | 40.31774 | -8.29247 | 34952 ft | 411 kts | 204° |
| 2026-04-07 11:49 | 40.26755 | -8.32849 | 34950 ft | 411 kts | 204° |
| 2026-04-07 11:49 | 40.21747 | -8.36444 | 34952 ft | 409 kts | 203° |
| 2026-04-07 11:50 | 40.16776 | -8.40009 | 34939 ft | 407 kts | 203° |
| 2026-04-07 11:50 | 40.11798 | -8.43552 | 34935 ft | 407 kts | 203° |
| 2026-04-07 11:51 | 40.06821 | -8.47101 | 34938 ft | 408 kts | 203° |
| 2026-04-07 11:51 | 40.01839 | -8.50650 | 34941 ft | 408 kts | 203° |
| 2026-04-07 11:52 | 39.96856 | -8.54195 | 34952 ft | 408 kts | 203° |
| 2026-04-07 11:52 | 39.91876 | -8.57732 | 34962 ft | 408 kts | 203° |
| 2026-04-07 11:53 | 39.86892 | -8.61259 | 34962 ft | 408 kts | 203° |
| 2026-04-07 11:53 | 39.81902 | -8.64787 | 34961 ft | 408 kts | 203° |
| 2026-04-07 11:54 | 39.76914 | -8.68312 | 34962 ft | 408 kts | 203° |
| 2026-04-07 11:54 | 39.71915 | -8.71837 | 35009 ft | 409 kts | 203° |
| 2026-04-07 11:55 | 39.66941 | -8.75340 | 34980 ft | 409 kts | 204° |
| 2026-04-07 11:55 | 39.61930 | -8.78865 | 34973 ft | 410 kts | 204° |
| 2026-04-07 11:56 | 39.56908 | -8.82390 | 34969 ft | 411 kts | 203° |
| 2026-04-07 11:56 | 39.51872 | -8.85912 | 34970 ft | 411 kts | 203° |
| 2026-04-07 11:57 | 39.46838 | -8.89427 | 34969 ft | 411 kts | 203° |
| 2026-04-07 11:57 | 39.41797 | -8.92948 | 34976 ft | 411 kts | 204° |
| 2026-04-07 11:58 | 39.36759 | -8.96462 | 34984 ft | 411 kts | 204° |
| 2026-04-07 11:58 | 39.31722 | -8.99971 | 34982 ft | 411 kts | 204° |
| 2026-04-07 11:59 | 39.26716 | -9.03448 | 34981 ft | 411 kts | 204° |
| 2026-04-07 11:59 | 39.21678 | -9.06939 | 34983 ft | 411 kts | 204° |
| 2026-04-07 12:00 | 39.16636 | -9.10432 | 34996 ft | 413 kts | 205° |
| 2026-04-07 12:00 | 39.11560 | -9.13947 | 35015 ft | 414 kts | 205° |
| 2026-04-07 12:01 | 39.06480 | -9.17448 | 35006 ft | 414 kts | 205° |
| 2026-04-07 12:01 | 39.01407 | -9.20939 | 35005 ft | 413 kts | 205° |
| 2026-04-07 12:02 | 38.96366 | -9.24413 | 35007 ft | 413 kts | 205° |
| 2026-04-07 12:02 | 38.91290 | -9.27891 | 35003 ft | 413 kts | 205° |
| 2026-04-07 12:03 | 38.86213 | -9.31364 | 35003 ft | 414 kts | 205° |
| 2026-04-07 12:03 | 38.81131 | -9.34844 | 34998 ft | 414 kts | 205° |
| 2026-04-07 12:04 | 38.76049 | -9.38323 | 34985 ft | 414 kts | 205° |
| 2026-04-07 12:04 | 38.70962 | -9.41792 | 34978 ft | 414 kts | 206° |
| 2026-04-07 12:05 | 38.65875 | -9.45253 | 34984 ft | 414 kts | 206° |
| 2026-04-07 12:05 | 38.60782 | -9.48721 | 35017 ft | 415 kts | 206° |
| 2026-04-07 12:06 | 38.55674 | -9.52189 | 35009 ft | 416 kts | 206° |
| 2026-04-07 12:06 | 38.50651 | -9.55888 | 34994 ft | 417 kts | 209° |
| 2026-04-07 12:07 | 38.45758 | -9.59776 | 34987 ft | 417 kts | 210° |
| 2026-04-07 12:07 | 38.40791 | -9.63702 | 34992 ft | 417 kts | 210° |
| 2026-04-07 12:08 | 38.35826 | -9.67537 | 34992 ft | 417 kts | 209° |
| 2026-04-07 12:08 | 38.30886 | -9.71318 | 35002 ft | 417 kts | 209° |
| 2026-04-07 12:09 | 38.25913 | -9.75127 | 35001 ft | 417 kts | 210° |
| 2026-04-07 12:09 | 38.20942 | -9.78945 | 34991 ft | 417 kts | 210° |
| 2026-04-07 12:10 | 38.15977 | -9.82751 | 34997 ft | 417 kts | 210° |
| 2026-04-07 12:10 | 38.11002 | -9.86552 | 35014 ft | 417 kts | 210° |
| 2026-04-07 12:11 | 38.06020 | -9.90355 | 35007 ft | 418 kts | 210° |
| 2026-04-07 12:11 | 38.01029 | -9.94153 | 34999 ft | 419 kts | 210° |
| 2026-04-07 12:12 | 37.96031 | -9.97957 | 35002 ft | 419 kts | 210° |
| 2026-04-07 12:12 | 37.91029 | -10.01758 | 35001 ft | 419 kts | 210° |
| 2026-04-07 12:13 | 37.86055 | -10.05526 | 35007 ft | 419 kts | 210° |
| 2026-04-07 12:13 | 37.81042 | -10.09316 | 35008 ft | 419 kts | 210° |
| 2026-04-07 12:14 | 37.76038 | -10.13101 | 34992 ft | 419 kts | 210° |
| 2026-04-07 12:14 | 37.71839 | -10.16267 | 34987 ft | 419 kts | 211° |
| 2026-04-07 12:15 | 37.66834 | -10.20034 | 35002 ft | 419 kts | 211° |
| 2026-04-07 12:15 | 37.61824 | -10.23802 | 35010 ft | 420 kts | 211° |
| 2026-04-07 12:16 | 37.56834 | -10.27553 | 35005 ft | 421 kts | 211° |
| 2026-04-07 12:16 | 37.51798 | -10.31332 | 35008 ft | 421 kts | 211° |
| 2026-04-07 12:17 | 37.46755 | -10.35114 | 34990 ft | 422 kts | 211° |
| 2026-04-07 12:17 | 37.41705 | -10.38878 | 35003 ft | 422 kts | 211° |
| 2026-04-07 12:18 | 37.36655 | -10.42639 | 35019 ft | 422 kts | 211° |
| 2026-04-07 12:18 | 37.31607 | -10.46410 | 35023 ft | 422 kts | 211° |
| 2026-04-07 12:19 | 37.26549 | -10.50173 | 35027 ft | 423 kts | 211° |
| 2026-04-07 12:19 | 37.21491 | -10.53938 | 35028 ft | 423 kts | 211° |
| 2026-04-07 12:20 | 37.16433 | -10.57690 | 35054 ft | 422 kts | 212° |
| 2026-04-07 12:20 | 37.11366 | -10.61443 | 35045 ft | 424 kts | 212° |
| 2026-04-07 12:21 | 37.06278 | -10.65203 | 35025 ft | 425 kts | 212° |
| 2026-04-07 12:21 | 37.01181 | -10.68967 | 35035 ft | 426 kts | 212° |
| 2026-04-07 12:22 | 36.96074 | -10.72731 | 35020 ft | 426 kts | 212° |
| 2026-04-07 12:22 | 36.90967 | -10.76489 | 35029 ft | 426 kts | 212° |
| 2026-04-07 12:23 | 36.85858 | -10.80241 | 35027 ft | 426 kts | 212° |
| 2026-04-07 12:23 | 36.80783 | -10.83966 | 35038 ft | 426 kts | 212° |
| 2026-04-07 12:24 | 36.75672 | -10.87712 | 35049 ft | 426 kts | 212° |
| 2026-04-07 12:24 | 36.70566 | -10.91456 | 35035 ft | 426 kts | 212° |
| 2026-04-07 12:25 | 36.65451 | -10.95188 | 35045 ft | 426 kts | 213° |
| 2026-04-07 12:25 | 36.60319 | -10.98921 | 35043 ft | 428 kts | 213° |
| 2026-04-07 12:26 | 36.55172 | -11.02661 | 35047 ft | 429 kts | 213° |
| 2026-04-07 12:26 | 36.50008 | -11.06409 | 35056 ft | 430 kts | 213° |
| 2026-04-07 12:27 | 36.44837 | -11.10156 | 35040 ft | 430 kts | 213° |
| 2026-04-07 12:27 | 36.39693 | -11.13883 | 35054 ft | 431 kts | 213° |
| 2026-04-07 12:28 | 36.34511 | -11.17636 | 35066 ft | 431 kts | 213° |
| 2026-04-07 12:29 | 36.26730 | -11.23258 | 35077 ft | 432 kts | 213° |
| 2026-04-07 12:29 | 36.21533 | -11.27004 | 35075 ft | 432 kts | 213° |
| 2026-04-07 12:30 | 36.16355 | -11.30732 | 35085 ft | 430 kts | 214° |
| 2026-04-07 12:30 | 36.11169 | -11.34447 | 35099 ft | 431 kts | 215° |
| 2026-04-07 12:31 | 36.06011 | -11.38148 | 35099 ft | 432 kts | 215° |
| 2026-04-07 12:31 | 36.00771 | -11.41893 | 35095 ft | 433 kts | 215° |
| 2026-04-07 12:32 | 35.95653 | -11.45705 | 35099 ft | 430 kts | 220° |
| 2026-04-07 12:32 | 35.90799 | -11.49995 | 35090 ft | 429 kts | 220° |
| 2026-04-07 12:33 | 35.85943 | -11.54267 | 35115 ft | 428 kts | 220° |
| 2026-04-07 12:33 | 35.81088 | -11.58521 | 35119 ft | 428 kts | 220° |
| 2026-04-07 12:34 | 35.76233 | -11.62769 | 35128 ft | 427 kts | 220° |
| 2026-04-07 12:34 | 35.71381 | -11.67014 | 35128 ft | 427 kts | 220° |
| 2026-04-07 12:35 | 35.66569 | -11.71217 | 35098 ft | 427 kts | 221° |
| 2026-04-07 12:35 | 35.61735 | -11.75439 | 35114 ft | 426 kts | 221° |
| 2026-04-07 12:36 | 35.56909 | -11.79646 | 35120 ft | 425 kts | 221° |
| 2026-04-07 12:36 | 35.52080 | -11.83841 | 35123 ft | 425 kts | 221° |
| 2026-04-07 12:37 | 35.47246 | -11.88031 | 35126 ft | 425 kts | 221° |
| 2026-04-07 12:37 | 35.42412 | -11.92209 | 35135 ft | 425 kts | 221° |
| 2026-04-07 12:38 | 35.37582 | -11.96390 | 35133 ft | 424 kts | 221° |
| 2026-04-07 12:38 | 35.32758 | -12.00564 | 35135 ft | 424 kts | 221° |
| 2026-04-07 12:39 | 35.27934 | -12.04729 | 35126 ft | 424 kts | 221° |
| 2026-04-07 12:39 | 35.23130 | -12.08866 | 35122 ft | 425 kts | 221° |
| 2026-04-07 12:40 | 35.18290 | -12.13026 | 35124 ft | 426 kts | 221° |
| 2026-04-07 12:40 | 35.13435 | -12.17191 | 35074 ft | 426 kts | 222° |
| 2026-04-07 12:41 | 35.08586 | -12.21361 | 35144 ft | 427 kts | 222° |
| 2026-04-07 12:41 | 35.03722 | -12.25524 | 35160 ft | 426 kts | 222° |
| 2026-04-07 12:42 | 34.98860 | -12.29677 | 35162 ft | 426 kts | 222° |
| 2026-04-07 12:42 | 34.94010 | -12.33817 | 35166 ft | 425 kts | 222° |
| 2026-04-07 12:43 | 34.89165 | -12.37960 | 35165 ft | 425 kts | 222° |
| 2026-04-07 12:43 | 34.84322 | -12.42089 | 35128 ft | 426 kts | 223° |
| 2026-04-07 12:44 | 34.79451 | -12.46236 | 35150 ft | 428 kts | 223° |
| 2026-04-07 12:44 | 34.74570 | -12.50374 | 35154 ft | 428 kts | 223° |
| 2026-04-07 12:45 | 34.69677 | -12.54505 | 35160 ft | 428 kts | 223° |
| 2026-04-07 12:45 | 34.64797 | -12.58648 | 35163 ft | 428 kts | 223° |
| 2026-04-07 12:46 | 34.59911 | -12.62770 | 35169 ft | 428 kts | 223° |
| 2026-04-07 12:46 | 34.55017 | -12.66894 | 35149 ft | 428 kts | 224° |
| 2026-04-07 12:47 | 34.50156 | -12.70990 | 35148 ft | 428 kts | 223° |
| 2026-04-07 12:47 | 34.45232 | -12.75138 | 35162 ft | 428 kts | 224° |
| 2026-04-07 12:48 | 34.40334 | -12.79265 | 35139 ft | 429 kts | 224° |
| 2026-04-07 12:48 | 34.35444 | -12.83364 | 35150 ft | 431 kts | 224° |
| 2026-04-07 12:49 | 34.30510 | -12.87488 | 35111 ft | 432 kts | 224° |
| 2026-04-07 12:49 | 34.25551 | -12.91629 | 35169 ft | 434 kts | 224° |
| 2026-04-07 12:50 | 34.20602 | -12.95798 | 35184 ft | 433 kts | 224° |
| 2026-04-07 12:50 | 34.15667 | -12.99977 | 35187 ft | 433 kts | 224° |
| 2026-04-07 12:51 | 34.10726 | -13.04154 | 35193 ft | 433 kts | 224° |
| 2026-04-07 12:51 | 34.05777 | -13.08313 | 35195 ft | 433 kts | 224° |
| 2026-04-07 12:52 | 34.00822 | -13.12467 | 35185 ft | 434 kts | 225° |
| 2026-04-07 12:52 | 33.95850 | -13.16630 | 35178 ft | 436 kts | 225° |
| 2026-04-07 12:53 | 33.90864 | -13.20798 | 35185 ft | 436 kts | 225° |
| 2026-04-07 12:53 | 33.85909 | -13.24945 | 35190 ft | 437 kts | 225° |
| 2026-04-07 12:54 | 33.80913 | -13.29118 | 35196 ft | 437 kts | 225° |
| 2026-04-07 12:54 | 33.75905 | -13.33291 | 35201 ft | 438 kts | 225° |
| 2026-04-07 12:55 | 33.70884 | -13.37463 | 35189 ft | 441 kts | 225° |
| 2026-04-07 12:55 | 33.65832 | -13.41661 | 35200 ft | 441 kts | 225° |
| 2026-04-07 12:56 | 33.60781 | -13.45855 | 35213 ft | 442 kts | 225° |
| 2026-04-07 12:56 | 33.55721 | -13.50044 | 35198 ft | 442 kts | 225° |
| 2026-04-07 12:57 | 33.50656 | -13.54238 | 35203 ft | 443 kts | 225° |
| 2026-04-07 12:57 | 33.45585 | -13.58439 | 35163 ft | 443 kts | 225° |
| 2026-04-07 12:58 | 33.40505 | -13.62630 | 35214 ft | 444 kts | 225° |
| 2026-04-07 12:58 | 33.35451 | -13.66791 | 35230 ft | 444 kts | 224° |
| 2026-04-07 12:59 | 33.30368 | -13.70967 | 35236 ft | 443 kts | 224° |
| 2026-04-07 12:59 | 33.25286 | -13.75147 | 35237 ft | 443 kts | 225° |
| 2026-04-07 13:00 | 33.20204 | -13.79322 | 35242 ft | 443 kts | 224° |
| 2026-04-07 13:00 | 33.15111 | -13.83478 | 35217 ft | 443 kts | 224° |
| 2026-04-07 13:01 | 33.10019 | -13.87624 | 35200 ft | 443 kts | 224° |
| 2026-04-07 13:01 | 33.04912 | -13.91758 | 35214 ft | 444 kts | 224° |
| 2026-04-07 13:02 | 33.00664 | -13.95192 | 35222 ft | 444 kts | 224° |
| 2026-04-07 13:02 | 32.94724 | -14.00001 | 35226 ft | 444 kts | 224° |
| 2026-04-07 13:03 | 32.90444 | -14.03468 | 35231 ft | 444 kts | 224° |
| 2026-04-07 13:03 | 32.85367 | -14.07567 | 35213 ft | 444 kts | 224° |
| 2026-04-07 13:04 | 32.80245 | -14.11686 | 35225 ft | 444 kts | 224° |
| 2026-04-07 13:04 | 32.75129 | -14.15800 | 35245 ft | 444 kts | 224° |
| 2026-04-07 13:05 | 32.70009 | -14.19914 | 35244 ft | 444 kts | 224° |
| 2026-04-07 13:05 | 32.64885 | -14.24027 | 35214 ft | 445 kts | 224° |
| 2026-04-07 13:06 | 32.59753 | -14.28140 | 35226 ft | 445 kts | 224° |
| 2026-04-07 13:06 | 32.54613 | -14.32261 | 35225 ft | 446 kts | 224° |
| 2026-04-07 13:07 | 32.49475 | -14.36372 | 35236 ft | 446 kts | 224° |
| 2026-04-07 13:07 | 32.44317 | -14.40476 | 35246 ft | 446 kts | 224° |
| 2026-04-07 13:08 | 32.39167 | -14.44574 | 35245 ft | 446 kts | 224° |
| 2026-04-07 13:08 | 32.34044 | -14.48641 | 35242 ft | 446 kts | 224° |
| 2026-04-07 13:09 | 32.28895 | -14.52735 | 35215 ft | 446 kts | 224° |
| 2026-04-07 13:09 | 32.23740 | -14.56833 | 35230 ft | 446 kts | 224° |
| 2026-04-07 13:10 | 32.18578 | -14.60931 | 35235 ft | 448 kts | 224° |
| 2026-04-07 13:10 | 32.13388 | -14.65041 | 35247 ft | 449 kts | 224° |
| 2026-04-07 13:11 | 32.08184 | -14.69143 | 35260 ft | 450 kts | 224° |
| 2026-04-07 13:11 | 32.02975 | -14.73239 | 35263 ft | 450 kts | 224° |
| 2026-04-07 13:12 | 31.97776 | -14.77338 | 35231 ft | 450 kts | 223° |
| 2026-04-07 13:12 | 31.92573 | -14.81437 | 35237 ft | 450 kts | 223° |
| 2026-04-07 13:13 | 31.87394 | -14.85516 | 35241 ft | 451 kts | 223° |
| 2026-04-07 13:13 | 31.82177 | -14.89616 | 35248 ft | 451 kts | 223° |
| 2026-04-07 13:14 | 31.76954 | -14.93703 | 35250 ft | 451 kts | 223° |
| 2026-04-07 13:14 | 31.71720 | -14.97790 | 35220 ft | 453 kts | 223° |
| 2026-04-07 13:15 | 31.66450 | -15.01911 | 35252 ft | 455 kts | 223° |
| 2026-04-07 13:15 | 31.61171 | -15.06034 | 35254 ft | 456 kts | 222° |
| 2026-04-07 13:16 | 31.55888 | -15.10138 | 35258 ft | 456 kts | 222° |
| 2026-04-07 13:16 | 31.50608 | -15.14252 | 35258 ft | 456 kts | 223° |
| 2026-04-07 13:17 | 31.45323 | -15.18367 | 35260 ft | 456 kts | 222° |
| 2026-04-07 13:17 | 31.40033 | -15.22467 | 35237 ft | 456 kts | 222° |
| 2026-04-07 13:18 | 31.34739 | -15.26574 | 35244 ft | 457 kts | 222° |
| 2026-04-07 13:18 | 31.29419 | -15.30662 | 35249 ft | 459 kts | 220° |
| 2026-04-07 13:19 | 31.23850 | -15.34407 | 35254 ft | 464 kts | 217° |
| 2026-04-07 13:19 | 31.18156 | -15.37883 | 35261 ft | 465 kts | 216° |
| 2026-04-07 13:20 | 31.12430 | -15.41408 | 35243 ft | 464 kts | 216° |
| 2026-04-07 13:20 | 31.06751 | -15.45017 | 35250 ft | 464 kts | 217° |
| 2026-04-07 13:21 | 31.01086 | -15.48652 | 35252 ft | 465 kts | 217° |
| 2026-04-07 13:21 | 30.95406 | -15.52274 | 35259 ft | 465 kts | 217° |
| 2026-04-07 13:22 | 30.89756 | -15.55847 | 35260 ft | 465 kts | 217° |
| 2026-04-07 13:22 | 30.84063 | -15.59430 | 35234 ft | 465 kts | 216° |
| 2026-04-07 13:23 | 30.78367 | -15.63027 | 35242 ft | 466 kts | 216° |
| 2026-04-07 13:23 | 30.72665 | -15.66628 | 35237 ft | 466 kts | 216° |
| 2026-04-07 13:24 | 30.66966 | -15.70228 | 35243 ft | 466 kts | 216° |
| 2026-04-07 13:24 | 30.61259 | -15.73824 | 35256 ft | 467 kts | 216° |
| 2026-04-07 13:25 | 30.55548 | -15.77409 | 35263 ft | 467 kts | 216° |
| 2026-04-07 13:25 | 30.49837 | -15.80997 | 35251 ft | 467 kts | 215° |
| 2026-04-07 13:26 | 30.44119 | -15.84575 | 35261 ft | 467 kts | 215° |
| 2026-04-07 13:26 | 30.38440 | -15.88130 | 35268 ft | 467 kts | 215° |
| 2026-04-07 13:27 | 30.32729 | -15.91697 | 35268 ft | 466 kts | 215° |
| 2026-04-07 13:27 | 30.27009 | -15.95268 | 35270 ft | 466 kts | 215° |
| 2026-04-07 13:28 | 30.21298 | -15.98832 | 35251 ft | 467 kts | 215° |
| 2026-04-07 13:28 | 30.15582 | -16.02388 | 35240 ft | 466 kts | 214° |
| 2026-04-07 13:29 | 30.09866 | -16.05940 | 35258 ft | 466 kts | 214° |
| 2026-04-07 13:29 | 30.04154 | -16.09489 | 35254 ft | 466 kts | 214° |
| 2026-04-07 13:30 | 29.98445 | -16.13041 | 35264 ft | 466 kts | 214° |
| 2026-04-07 13:30 | 29.92732 | -16.16578 | 35249 ft | 466 kts | 214° |
| 2026-04-07 13:31 | 29.87051 | -16.20091 | 35254 ft | 466 kts | 214° |
| 2026-04-07 13:31 | 29.81332 | -16.23623 | 35260 ft | 467 kts | 214° |
| 2026-04-07 13:32 | 29.75604 | -16.27153 | 35264 ft | 467 kts | 214° |
| 2026-04-07 13:32 | 29.69878 | -16.30690 | 35274 ft | 467 kts | 214° |
| 2026-04-07 13:33 | 29.64146 | -16.34216 | 35278 ft | 467 kts | 214° |
| 2026-04-07 13:33 | 29.55545 | -16.39489 | 35269 ft | 466 kts | 214° |
| 2026-04-07 13:34 | 29.49824 | -16.43005 | 35273 ft | 466 kts | 214° |
| 2026-04-07 13:34 | 29.44103 | -16.46520 | 35277 ft | 467 kts | 214° |
| 2026-04-07 13:35 | 29.38372 | -16.50024 | 35284 ft | 467 kts | 214° |
| 2026-04-07 13:35 | 29.32635 | -16.53520 | 35265 ft | 467 kts | 213° |
| 2026-04-07 13:36 | 29.26938 | -16.56983 | 35267 ft | 466 kts | 213° |
| 2026-04-07 13:36 | 29.21211 | -16.60474 | 35268 ft | 466 kts | 213° |
| 2026-04-07 13:37 | 29.15493 | -16.63966 | 35273 ft | 466 kts | 213° |
| 2026-04-07 13:37 | 29.09766 | -16.67447 | 35271 ft | 466 kts | 213° |
| 2026-04-07 13:38 | 29.04045 | -16.70919 | 35240 ft | 465 kts | 213° |
| 2026-04-07 13:38 | 28.98326 | -16.74386 | 35256 ft | 465 kts | 213° |
| 2026-04-07 13:39 | 28.92611 | -16.77840 | 35268 ft | 465 kts | 213° |
| 2026-04-07 13:39 | 28.86892 | -16.81302 | 35274 ft | 465 kts | 213° |
| 2026-04-07 13:40 | 28.81178 | -16.84749 | 35277 ft | 465 kts | 213° |
| 2026-04-07 13:40 | 28.75462 | -16.88199 | 35280 ft | 464 kts | 213° |
| 2026-04-07 13:41 | 28.69787 | -16.91624 | 35273 ft | 465 kts | 213° |
| 2026-04-07 13:41 | 28.64069 | -16.95065 | 35280 ft | 465 kts | 213° |
| 2026-04-07 13:42 | 28.58350 | -16.98499 | 35282 ft | 464 kts | 212° |
| 2026-04-07 13:42 | 28.52643 | -17.01926 | 35278 ft | 464 kts | 213° |
| 2026-04-07 13:43 | 28.46929 | -17.05348 | 35263 ft | 464 kts | 212° |
| 2026-04-07 13:43 | 28.41215 | -17.08765 | 35255 ft | 464 kts | 212° |
| 2026-04-07 13:44 | 28.35505 | -17.12181 | 35261 ft | 464 kts | 212° |
| 2026-04-07 13:44 | 28.29793 | -17.15597 | 35266 ft | 464 kts | 212° |
| 2026-04-07 13:45 | 28.24078 | -17.19006 | 35257 ft | 464 kts | 212° |
| 2026-04-07 13:45 | 28.18368 | -17.22405 | 35249 ft | 463 kts | 212° |
| 2026-04-07 13:46 | 28.12659 | -17.25809 | 35232 ft | 463 kts | 212° |
| 2026-04-07 13:46 | 28.06996 | -17.29173 | 35212 ft | 462 kts | 212° |
| 2026-04-07 13:47 | 28.01297 | -17.32561 | 35220 ft | 463 kts | 212° |
| 2026-04-07 13:47 | 27.95881 | -17.36405 | 35225 ft | 459 kts | 218° |
| 2026-04-07 13:48 | 27.90558 | -17.40385 | 35221 ft | 459 kts | 218° |
| 2026-04-07 13:48 | 27.85230 | -17.44358 | 35226 ft | 459 kts | 218° |
| 2026-04-07 13:49 | 27.79901 | -17.48318 | 35222 ft | 458 kts | 217° |
| 2026-04-07 13:49 | 27.74570 | -17.52276 | 35227 ft | 458 kts | 217° |
| 2026-04-07 13:50 | 27.69245 | -17.56233 | 35235 ft | 458 kts | 217° |
| 2026-04-07 13:50 | 27.63920 | -17.60189 | 35239 ft | 458 kts | 217° |
| 2026-04-07 13:51 | 27.58590 | -17.64135 | 35243 ft | 458 kts | 217° |
| 2026-04-07 13:51 | 27.54165 | -17.67406 | 35243 ft | 458 kts | 217° |
| 2026-04-07 13:52 | 27.48835 | -17.71346 | 35233 ft | 458 kts | 217° |
| 2026-04-07 13:52 | 27.43507 | -17.75284 | 35228 ft | 458 kts | 217° |
| 2026-04-07 13:53 | 27.38182 | -17.79217 | 35233 ft | 458 kts | 217° |
| 2026-04-07 13:53 | 27.32848 | -17.83151 | 35241 ft | 458 kts | 217° |
| 2026-04-07 13:54 | 27.27517 | -17.87075 | 35243 ft | 458 kts | 217° |
| 2026-04-07 13:54 | 27.22184 | -17.90987 | 35240 ft | 458 kts | 217° |
| 2026-04-07 13:55 | 27.16890 | -17.94878 | 35232 ft | 458 kts | 217° |
| 2026-04-07 13:55 | 27.11554 | -17.98797 | 35231 ft | 458 kts | 217° |
| 2026-04-07 13:56 | 27.06223 | -18.02702 | 35235 ft | 458 kts | 217° |
| 2026-04-07 13:56 | 27.00884 | -18.06602 | 35238 ft | 458 kts | 217° |
| 2026-04-07 13:57 | 26.95551 | -18.10505 | 35234 ft | 458 kts | 217° |
| 2026-04-07 13:57 | 26.90215 | -18.14408 | 35236 ft | 458 kts | 217° |
| 2026-04-07 13:58 | 26.84876 | -18.18304 | 35222 ft | 458 kts | 217° |
| 2026-04-07 13:58 | 26.79534 | -18.22186 | 35229 ft | 458 kts | 216° |
| 2026-04-07 13:59 | 26.74194 | -18.26070 | 35234 ft | 458 kts | 217° |
| 2026-04-07 13:59 | 26.68848 | -18.29953 | 35241 ft | 458 kts | 217° |
| 2026-04-07 14:00 | 26.63507 | -18.33837 | 35243 ft | 458 kts | 217° |
| 2026-04-07 14:00 | 26.58163 | -18.37715 | 35241 ft | 458 kts | 217° |
| 2026-04-07 14:01 | 26.52820 | -18.41586 | 35242 ft | 458 kts | 216° |
| 2026-04-07 14:01 | 26.47473 | -18.45453 | 35234 ft | 458 kts | 216° |
| 2026-04-07 14:02 | 26.42120 | -18.49328 | 35238 ft | 459 kts | 216° |
| 2026-04-07 14:02 | 26.36762 | -18.53191 | 35249 ft | 459 kts | 216° |
| 2026-04-07 14:03 | 26.31394 | -18.57053 | 35251 ft | 459 kts | 216° |
| 2026-04-07 14:03 | 26.26030 | -18.60917 | 35248 ft | 459 kts | 216° |
| 2026-04-07 14:04 | 26.20709 | -18.64756 | 35243 ft | 459 kts | 216° |
| 2026-04-07 14:04 | 26.15347 | -18.68603 | 35238 ft | 458 kts | 216° |
| 2026-04-07 14:05 | 26.09986 | -18.72447 | 35243 ft | 458 kts | 216° |
| 2026-04-07 14:05 | 26.04625 | -18.76289 | 35250 ft | 458 kts | 216° |
| 2026-04-07 14:06 | 25.99272 | -18.80136 | 35251 ft | 458 kts | 216° |
| 2026-04-07 14:06 | 25.93911 | -18.83974 | 35243 ft | 458 kts | 216° |
| 2026-04-07 14:07 | 25.88544 | -18.87795 | 35232 ft | 458 kts | 216° |
| 2026-04-07 14:07 | 25.83185 | -18.91615 | 35236 ft | 457 kts | 216° |
| 2026-04-07 14:08 | 25.77834 | -18.95437 | 35243 ft | 457 kts | 216° |
| 2026-04-07 14:08 | 25.72480 | -18.99249 | 35240 ft | 457 kts | 216° |
| 2026-04-07 14:09 | 25.67121 | -19.03060 | 35244 ft | 457 kts | 216° |
| 2026-04-07 14:09 | 25.61763 | -19.06873 | 35242 ft | 457 kts | 216° |
| 2026-04-07 14:10 | 25.56407 | -19.10671 | 35234 ft | 457 kts | 216° |
| 2026-04-07 14:10 | 25.51093 | -19.14444 | 35230 ft | 456 kts | 216° |
| 2026-04-07 14:11 | 25.45747 | -19.18234 | 35239 ft | 456 kts | 216° |
| 2026-04-07 14:11 | 25.40395 | -19.22012 | 35240 ft | 456 kts | 216° |
| 2026-04-07 14:12 | 25.35040 | -19.25793 | 35242 ft | 456 kts | 216° |
| 2026-04-07 14:12 | 25.29688 | -19.29573 | 35239 ft | 456 kts | 216° |
| 2026-04-07 14:13 | 25.24346 | -19.33350 | 35233 ft | 456 kts | 216° |
| 2026-04-07 14:13 | 25.18996 | -19.37120 | 35236 ft | 456 kts | 215° |
| 2026-04-07 14:14 | 25.13655 | -19.40879 | 35239 ft | 455 kts | 215° |
| 2026-04-07 14:14 | 25.08310 | -19.44634 | 35241 ft | 455 kts | 215° |
| 2026-04-07 14:15 | 25.02964 | -19.48391 | 35232 ft | 455 kts | 215° |
| 2026-04-07 14:15 | 24.97653 | -19.52117 | 35235 ft | 455 kts | 215° |
| 2026-04-07 14:16 | 24.92306 | -19.55863 | 35225 ft | 455 kts | 215° |
| 2026-04-07 14:16 | 24.86959 | -19.59607 | 35227 ft | 455 kts | 215° |
| 2026-04-07 14:17 | 24.81608 | -19.63349 | 35230 ft | 456 kts | 215° |
| 2026-04-07 14:17 | 24.76255 | -19.67095 | 35234 ft | 456 kts | 215° |
| 2026-04-07 14:18 | 24.70896 | -19.70846 | 35238 ft | 456 kts | 215° |
| 2026-04-07 14:18 | 24.65534 | -19.74581 | 35240 ft | 456 kts | 215° |
| 2026-04-07 14:19 | 24.60167 | -19.78306 | 35238 ft | 456 kts | 215° |
| 2026-04-07 14:19 | 24.54800 | -19.82041 | 35229 ft | 457 kts | 215° |
| 2026-04-07 14:20 | 24.49432 | -19.85773 | 35229 ft | 457 kts | 215° |
| 2026-04-07 14:20 | 24.44090 | -19.89478 | 35231 ft | 457 kts | 215° |
| 2026-04-07 14:21 | 24.38713 | -19.93212 | 35230 ft | 458 kts | 215° |
| 2026-04-07 14:21 | 24.33330 | -19.96944 | 35241 ft | 458 kts | 215° |
| 2026-04-07 14:22 | 24.27940 | -20.00682 | 35244 ft | 458 kts | 215° |
| 2026-04-07 14:22 | 24.22550 | -20.04415 | 35236 ft | 458 kts | 215° |
| 2026-04-07 14:23 | 24.17153 | -20.08132 | 35236 ft | 459 kts | 214° |
| 2026-04-07 14:23 | 24.11753 | -20.11852 | 35235 ft | 458 kts | 214° |
| 2026-04-07 14:24 | 24.06354 | -20.15570 | 35226 ft | 458 kts | 214° |
| 2026-04-07 14:24 | 24.00960 | -20.19294 | 35225 ft | 458 kts | 215° |
| 2026-04-07 14:25 | 23.95599 | -20.22988 | 35229 ft | 458 kts | 215° |
| 2026-04-07 14:25 | 23.90163 | -20.26723 | 35220 ft | 458 kts | 214° |
| 2026-04-07 14:26 | 23.84799 | -20.30407 | 35218 ft | 458 kts | 214° |
| 2026-04-07 14:26 | 23.79394 | -20.34106 | 35219 ft | 458 kts | 214° |
| 2026-04-07 14:27 | 23.73987 | -20.37804 | 35217 ft | 458 kts | 215° |
| 2026-04-07 14:27 | 23.68587 | -20.41508 | 35215 ft | 458 kts | 214° |
| 2026-04-07 14:28 | 23.63189 | -20.45212 | 35214 ft | 458 kts | 215° |
| 2026-04-07 14:28 | 23.57785 | -20.48906 | 35205 ft | 458 kts | 214° |
| 2026-04-07 14:29 | 23.52411 | -20.52568 | 35208 ft | 458 kts | 215° |
| 2026-04-07 14:29 | 23.47003 | -20.56249 | 35207 ft | 458 kts | 215° |
| 2026-04-07 14:30 | 23.41594 | -20.59934 | 35205 ft | 458 kts | 214° |
| 2026-04-07 14:30 | 23.36183 | -20.63628 | 35211 ft | 458 kts | 216° |
| 2026-04-07 14:31 | 23.30777 | -20.67316 | 35209 ft | 458 kts | 214° |
| 2026-04-07 14:31 | 23.25396 | -20.70960 | 35210 ft | 458 kts | 216° |
| 2026-04-07 14:32 | 23.19986 | -20.74624 | 35206 ft | 458 kts | 215° |
| 2026-04-07 14:32 | 23.14570 | -20.78294 | 35204 ft | 458 kts | 216° |
| 2026-04-07 14:33 | 23.09157 | -20.81958 | 35196 ft | 458 kts | 215° |
| 2026-04-07 14:33 | 23.03748 | -20.85624 | 35199 ft | 459 kts | 214° |
| 2026-04-07 14:34 | 22.98331 | -20.89292 | 35201 ft | 459 kts | 215° |
| 2026-04-07 14:34 | 22.92901 | -20.92955 | 35194 ft | 459 kts | 215° |
| 2026-04-07 14:35 | 22.87472 | -20.96612 | 35200 ft | 459 kts | 215° |
| 2026-04-07 14:35 | 22.82071 | -21.00245 | 35201 ft | 459 kts | 215° |
| 2026-04-07 14:36 | 22.76605 | -21.03928 | 35201 ft | 459 kts | 215° |
| 2026-04-07 14:36 | 22.71217 | -21.07558 | 35202 ft | 460 kts | 215° |
| 2026-04-07 14:37 | 22.65786 | -21.11211 | 35202 ft | 460 kts | 215° |
| 2026-04-07 14:37 | 22.60352 | -21.14865 | 35195 ft | 460 kts | 215° |
| 2026-04-07 14:38 | 22.54884 | -21.18535 | 35205 ft | 459 kts | 215° |
| 2026-04-07 14:38 | 22.49485 | -21.22148 | 35210 ft | 459 kts | 215° |
| 2026-04-07 14:39 | 22.41338 | -21.27596 | 35202 ft | 459 kts | 215° |
| 2026-04-07 14:40 | 22.35913 | -21.31229 | 35202 ft | 459 kts | 215° |
| 2026-04-07 14:40 | 22.30477 | -21.34865 | 35207 ft | 459 kts | 215° |
| 2026-04-07 14:41 | 22.25040 | -21.38491 | 35205 ft | 459 kts | 215° |
| 2026-04-07 14:41 | 22.19615 | -21.42101 | 35227 ft | 458 kts | 215° |
| 2026-04-07 14:42 | 22.14198 | -21.45708 | 35223 ft | 457 kts | 215° |
| 2026-04-07 14:42 | 22.09702 | -21.48696 | 35221 ft | 456 kts | 216° |
| 2026-04-07 14:43 | 22.04298 | -21.52299 | 35219 ft | 456 kts | 215° |
| 2026-04-07 14:43 | 21.98898 | -21.55888 | 35210 ft | 455 kts | 215° |
| 2026-04-07 14:44 | 21.93506 | -21.59476 | 35200 ft | 455 kts | 216° |
| 2026-04-07 14:44 | 21.88131 | -21.63044 | 35218 ft | 453 kts | 216° |
| 2026-04-07 14:45 | 21.82768 | -21.66589 | 35217 ft | 452 kts | 216° |
| 2026-04-07 14:45 | 21.77413 | -21.70122 | 35214 ft | 451 kts | 216° |
| 2026-04-07 14:46 | 21.72076 | -21.73659 | 35212 ft | 450 kts | 216° |
| 2026-04-07 14:46 | 21.66776 | -21.77161 | 35205 ft | 450 kts | 216° |
| 2026-04-07 14:47 | 21.61443 | -21.80692 | 35207 ft | 450 kts | 216° |
| 2026-04-07 14:47 | 21.56115 | -21.84215 | 35198 ft | 449 kts | 216° |
| 2026-04-07 14:48 | 21.50789 | -21.87718 | 35205 ft | 448 kts | 216° |
| 2026-04-07 14:48 | 21.45468 | -21.91216 | 35202 ft | 447 kts | 216° |
| 2026-04-07 14:49 | 21.40163 | -21.94713 | 35199 ft | 447 kts | 216° |
| 2026-04-07 14:49 | 21.34388 | -21.97300 | 35196 ft | 458 kts | 197° |
| 2026-04-07 14:50 | 21.27992 | -21.98022 | 35184 ft | 464 kts | 189° |
| 2026-04-07 14:50 | 21.21595 | -21.98521 | 35173 ft | 464 kts | 189° |
| 2026-04-07 14:51 | 21.15160 | -21.99030 | 35180 ft | 464 kts | 189° |
| 2026-04-07 14:51 | 21.08724 | -21.99552 | 35189 ft | 463 kts | 189° |
| 2026-04-07 14:52 | 21.02292 | -22.00074 | 35192 ft | 464 kts | 189° |
| 2026-04-07 14:52 | 20.95852 | -22.00591 | 35168 ft | 464 kts | 190° |
| 2026-04-07 14:53 | 20.89418 | -22.01105 | 35176 ft | 463 kts | 190° |
| 2026-04-07 14:53 | 20.83004 | -22.01620 | 35191 ft | 462 kts | 190° |
| 2026-04-07 14:54 | 20.76595 | -22.02135 | 35186 ft | 462 kts | 190° |
| 2026-04-07 14:54 | 20.70185 | -22.02652 | 35183 ft | 461 kts | 190° |
| 2026-04-07 14:55 | 20.63786 | -22.03163 | 35161 ft | 461 kts | 191° |
| 2026-04-07 14:55 | 20.57437 | -22.03671 | 35184 ft | 460 kts | 191° |
| 2026-04-07 14:56 | 20.51063 | -22.04182 | 35185 ft | 459 kts | 191° |
| 2026-04-07 14:56 | 20.44695 | -22.04693 | 35173 ft | 459 kts | 191° |
| 2026-04-07 14:57 | 20.38333 | -22.05200 | 35179 ft | 458 kts | 191° |
| 2026-04-07 14:57 | 20.31971 | -22.05706 | 35155 ft | 458 kts | 192° |
| 2026-04-07 14:58 | 20.25630 | -22.06214 | 35170 ft | 456 kts | 192° |
| 2026-04-07 14:58 | 20.19299 | -22.06724 | 35175 ft | 456 kts | 192° |
| 2026-04-07 14:59 | 20.12974 | -22.07230 | 35176 ft | 455 kts | 192° |
| 2026-04-07 14:59 | 20.06655 | -22.07727 | 35172 ft | 455 kts | 192° |
| 2026-04-07 15:00 | 20.00340 | -22.08230 | 35170 ft | 455 kts | 192° |
| 2026-04-07 15:00 | 19.94024 | -22.08730 | 35167 ft | 455 kts | 192° |
| 2026-04-07 15:01 | 19.87717 | -22.09231 | 35166 ft | 455 kts | 192° |
| 2026-04-07 15:01 | 19.81451 | -22.09727 | 35162 ft | 455 kts | 192° |
| 2026-04-07 15:02 | 19.75140 | -22.10223 | 35160 ft | 455 kts | 192° |
| 2026-04-07 15:02 | 19.68836 | -22.10723 | 35138 ft | 454 kts | 192° |
| 2026-04-07 15:03 | 19.62530 | -22.11224 | 35145 ft | 454 kts | 192° |
| 2026-04-07 15:03 | 19.56225 | -22.11717 | 35143 ft | 454 kts | 192° |
| 2026-04-07 15:04 | 19.49923 | -22.12212 | 35145 ft | 454 kts | 192° |
| 2026-04-07 15:04 | 19.43623 | -22.12712 | 35146 ft | 454 kts | 192° |
| 2026-04-07 15:05 | 19.37321 | -22.13214 | 35123 ft | 454 kts | 193° |
| 2026-04-07 15:05 | 19.31069 | -22.13709 | 35130 ft | 454 kts | 193° |
| 2026-04-07 15:06 | 19.24770 | -22.14202 | 35136 ft | 453 kts | 193° |
| 2026-04-07 15:06 | 19.18482 | -22.14700 | 35132 ft | 453 kts | 192° |
| 2026-04-07 15:07 | 19.12192 | -22.15191 | 35134 ft | 453 kts | 193° |
| 2026-04-07 15:07 | 19.05898 | -22.15693 | 35108 ft | 453 kts | 193° |
| 2026-04-07 15:08 | 18.99610 | -22.16186 | 35122 ft | 453 kts | 193° |
| 2026-04-07 15:08 | 18.93324 | -22.16675 | 35126 ft | 452 kts | 193° |
| 2026-04-07 15:09 | 18.87086 | -22.17158 | 35129 ft | 452 kts | 193° |
| 2026-04-07 15:09 | 18.80814 | -22.17649 | 35125 ft | 452 kts | 193° |
| 2026-04-07 15:10 | 18.74542 | -22.18140 | 35098 ft | 452 kts | 193° |
| 2026-04-07 15:10 | 18.68275 | -22.18631 | 35109 ft | 451 kts | 193° |
| 2026-04-07 15:11 | 18.62010 | -22.19121 | 35117 ft | 451 kts | 193° |
| 2026-04-07 15:11 | 18.55748 | -22.19606 | 35125 ft | 451 kts | 193° |
| 2026-04-07 15:12 | 18.49486 | -22.20092 | 35123 ft | 451 kts | 193° |
| 2026-04-07 15:12 | 18.43229 | -22.20586 | 35081 ft | 451 kts | 193° |
| 2026-04-07 15:13 | 18.36965 | -22.21086 | 35115 ft | 451 kts | 193° |
| 2026-04-07 15:13 | 18.30696 | -22.21568 | 35120 ft | 452 kts | 193° |
| 2026-04-07 15:14 | 18.24430 | -22.22053 | 35116 ft | 452 kts | 193° |
| 2026-04-07 15:14 | 18.18158 | -22.22546 | 35117 ft | 451 kts | 193° |
| 2026-04-07 15:15 | 18.11898 | -22.23029 | 34847 ft | 453 kts | 193° |
| 2026-04-07 15:15 | 18.08767 | -22.23270 | 34225 ft | 445 kts | 193° |
| 2026-04-07 15:15 | 18.05731 | -22.23491 | 33591 ft | 431 kts | 193° |
| 2026-04-07 15:15 | 18.02766 | -22.23706 | 32973 ft | 425 kts | 193° |
| 2026-04-07 15:16 | 18.00817 | -22.23854 | 32573 ft | 423 kts | 193° |
| 2026-04-07 15:16 | 17.98580 | -22.24033 | 32121 ft | 423 kts | 193° |
| 2026-04-07 15:16 | 17.95629 | -22.24278 | 31544 ft | 425 kts | 193° |
| 2026-04-07 15:17 | 17.92678 | -22.24519 | 30974 ft | 425 kts | 193° |
| 2026-04-07 15:17 | 17.89783 | -22.24976 | 30412 ft | 417 kts | 201° |
| 2026-04-07 15:17 | 17.87038 | -22.25858 | 29797 ft | 410 kts | 208° |
| 2026-04-07 15:17 | 17.84459 | -22.27107 | 29175 ft | 408 kts | 213° |
| 2026-04-07 15:18 | 17.81902 | -22.28443 | 28541 ft | 412 kts | 213° |
| 2026-04-07 15:18 | 17.79325 | -22.29790 | 27920 ft | 415 kts | 212° |
| 2026-04-07 15:18 | 17.76726 | -22.31147 | 27299 ft | 418 kts | 212° |
| 2026-04-07 15:18 | 17.74118 | -22.32505 | 26710 ft | 420 kts | 212° |
| 2026-04-07 15:19 | 17.71490 | -22.33871 | 26134 ft | 423 kts | 212° |
| 2026-04-07 15:19 | 17.68838 | -22.35245 | 25570 ft | 427 kts | 211° |
| 2026-04-07 15:19 | 17.66169 | -22.36632 | 25035 ft | 430 kts | 211° |
| 2026-04-07 15:19 | 17.63476 | -22.38035 | 24476 ft | 433 kts | 211° |
| 2026-04-07 15:20 | 17.60762 | -22.39449 | 23943 ft | 437 kts | 211° |
| 2026-04-07 15:20 | 17.58061 | -22.40851 | 23377 ft | 440 kts | 211° |
| 2026-04-07 15:20 | 17.55308 | -22.42278 | 22746 ft | 442 kts | 211° |
| 2026-04-07 15:20 | 17.52545 | -22.43707 | 22129 ft | 443 kts | 211° |
| 2026-04-07 15:21 | 17.49778 | -22.45137 | 21518 ft | 444 kts | 211° |
| 2026-04-07 15:21 | 17.47001 | -22.46576 | 20933 ft | 445 kts | 210° |
| 2026-04-07 15:21 | 17.44245 | -22.48003 | 20345 ft | 434 kts | 210° |
| 2026-04-07 15:21 | 17.41571 | -22.49381 | 19772 ft | 425 kts | 210° |
| 2026-04-07 15:22 | 17.38925 | -22.50751 | 19253 ft | 424 kts | 210° |
| 2026-04-07 15:22 | 17.36290 | -22.52119 | 18736 ft | 418 kts | 210° |
| 2026-04-07 15:22 | 17.33675 | -22.53477 | 18194 ft | 423 kts | 210° |
| 2026-04-07 15:22 | 17.31067 | -22.54833 | 17599 ft | 414 kts | 210° |
| 2026-04-07 15:23 | 17.28498 | -22.56163 | 17017 ft | 411 kts | 210° |
| 2026-04-07 15:23 | 17.25931 | -22.57493 | 16439 ft | 412 kts | 210° |
| 2026-04-07 15:23 | 17.23380 | -22.58811 | 15878 ft | 403 kts | 209° |
| 2026-04-07 15:23 | 17.20945 | -22.60065 | 15433 ft | 377 kts | 209° |
| 2026-04-07 15:24 | 17.18687 | -22.61224 | 15069 ft | 355 kts | 209° |
| 2026-04-07 15:24 | 17.16521 | -22.62336 | 14699 ft | 340 kts | 209° |
| 2026-04-07 15:24 | 17.14414 | -22.63424 | 14334 ft | 334 kts | 210° |
| 2026-04-07 15:24 | 17.12338 | -22.64501 | 13964 ft | 332 kts | 209° |
| 2026-04-07 15:25 | 17.10276 | -22.65572 | 13562 ft | 331 kts | 209° |
| 2026-04-07 15:25 | 17.08219 | -22.66642 | 13150 ft | 329 kts | 208° |
| 2026-04-07 15:25 | 17.06177 | -22.67698 | 12743 ft | 326 kts | 210° |
| 2026-04-07 15:25 | 17.04151 | -22.68759 | 12345 ft | 325 kts | 209° |
| 2026-04-07 15:26 | 17.02043 | -22.69562 | 11950 ft | 319 kts | 194° |
| 2026-04-07 15:26 | 16.99919 | -22.70040 | 11564 ft | 304 kts | 194° |
| 2026-04-07 15:26 | 16.97881 | -22.70494 | 11196 ft | 297 kts | 194° |
| 2026-04-07 15:26 | 16.95858 | -22.70945 | 10843 ft | 295 kts | 194° |
| 2026-04-07 15:27 | 16.93878 | -22.71386 | 10495 ft | 295 kts | 193° |
| 2026-04-07 15:27 | 16.91862 | -22.71832 | 10151 ft | 295 kts | 192° |
| 2026-04-07 15:27 | 16.89861 | -22.72273 | 9790 ft | 294 kts | 192° |
| 2026-04-07 15:27 | 16.87865 | -22.72714 | 9407 ft | 292 kts | 192° |
| 2026-04-07 15:28 | 16.85884 | -22.73152 | 9038 ft | 290 kts | 192° |
| 2026-04-07 15:28 | 16.83948 | -22.73580 | 8694 ft | 277 kts | 192° |
| 2026-04-07 15:28 | 16.82093 | -22.73989 | 8381 ft | 270 kts | 192° |
| 2026-04-07 15:28 | 16.80267 | -22.74391 | 8063 ft | 267 kts | 192° |
| 2026-04-07 15:29 | 16.78458 | -22.74792 | 7752 ft | 264 kts | 191° |
| 2026-04-07 15:29 | 16.76664 | -22.75190 | 7438 ft | 263 kts | 191° |
| 2026-04-07 15:29 | 16.74875 | -22.75585 | 7130 ft | 262 kts | 191° |
| 2026-04-07 15:29 | 16.73098 | -22.75975 | 6823 ft | 260 kts | 191° |
| 2026-04-07 15:30 | 16.71326 | -22.76366 | 6521 ft | 259 kts | 191° |
| 2026-04-07 15:30 | 16.69568 | -22.76752 | 6198 ft | 254 kts | 191° |
| 2026-04-07 15:30 | 16.68441 | -22.76999 | 5975 ft | 246 kts | 191° |
| 2026-04-07 15:30 | 16.66792 | -22.77362 | 5665 ft | 239 kts | 191° |
| 2026-04-07 15:31 | 16.64647 | -22.77837 | 5287 ft | 239 kts | 189° |
| 2026-04-07 15:31 | 16.63017 | -22.78195 | 5003 ft | 240 kts | 189° |
| 2026-04-07 15:31 | 16.61429 | -22.78716 | 4706 ft | 241 kts | 204° |
| 2026-04-07 15:31 | 16.60048 | -22.79710 | 4414 ft | 242 kts | 223° |
| 2026-04-07 15:32 | 16.58864 | -22.80959 | 4123 ft | 243 kts | 227° |
| 2026-04-07 15:32 | 16.58116 | -22.81856 | 3923 ft | 243 kts | 230° |
| 2026-04-07 15:32 | 16.57100 | -22.83268 | 3637 ft | 243 kts | 235° |
| 2026-04-07 15:32 | 16.56200 | -22.84765 | 3347 ft | 244 kts | 240° |
| 2026-04-07 15:33 | 16.55433 | -22.86313 | 3066 ft | 243 kts | 246° |
| 2026-04-07 15:33 | 16.54786 | -22.87941 | 2760 ft | 243 kts | 252° |
| 2026-04-07 15:33 | 16.54281 | -22.89599 | 2460 ft | 236 kts | 257° |
| 2026-04-07 15:33 | 16.54128 | -22.91237 | 2189 ft | 219 kts | 282° |
| 2026-04-07 15:34 | 16.54551 | -22.92669 | 2030 ft | 199 kts | 306° |
| 2026-04-07 15:34 | 16.55332 | -22.93730 | 1993 ft | 175 kts | 325° |
| 2026-04-07 15:34 | 16.56293 | -22.94410 | 2015 ft | 163 kts | 341° |
| 2026-04-07 15:34 | 16.57353 | -22.94747 | 2010 ft | 157 kts | 357° |
| 2026-04-07 15:35 | 16.58403 | -22.94790 | 2017 ft | 148 kts | 5° |
| 2026-04-07 15:35 | 16.59430 | -22.94797 | 2012 ft | 148 kts | 4° |
| 2026-04-07 15:35 | 16.60457 | -22.94804 | 2004 ft | 147 kts | 4° |
| 2026-04-07 15:35 | 16.61484 | -22.94811 | 2008 ft | 148 kts | 4° |
| 2026-04-07 15:36 | 16.62507 | -22.94818 | 1995 ft | 146 kts | 4° |
| 2026-04-07 15:36 | 16.63514 | -22.94825 | 1883 ft | 143 kts | 5° |
| 2026-04-07 15:36 | 16.64478 | -22.94833 | 1729 ft | 130 kts | 6° |
| 2026-04-07 15:36 | 16.65332 | -22.94840 | 1580 ft | 121 kts | 6° |
| 2026-04-07 15:37 | 16.66172 | -22.94845 | 1426 ft | 121 kts | 5° |
| 2026-04-07 15:37 | 16.67002 | -22.94857 | 1273 ft | 117 kts | 3° |
| 2026-04-07 15:37 | 16.67817 | -22.94879 | 1125 ft | 117 kts | 4° |
| 2026-04-07 15:37 | 16.68637 | -22.94880 | 929 ft | 118 kts | 5° |
| 2026-04-07 15:38 | 16.69455 | -22.94873 | 770 ft | 122 kts | 4° |
| 2026-04-07 15:38 | 16.70282 | -22.94886 | 645 ft | 117 kts | 2° |
| 2026-04-07 15:38 | 16.71096 | -22.94884 | 466 ft | 116 kts | 6° |
| 2026-04-07 15:38 | 16.71909 | -22.94884 | 308 ft | 118 kts | 6° |
| 2026-04-07 15:39 | 16.72727 | -22.94889 | 201 ft | 116 kts | 6° |
| 2026-04-07 15:39 | 16.73440 | -22.94889 | 183 ft | 81 kts | 359° |
| 2026-04-07 15:39 | 16.73834 | -22.94898 | 180 ft | 37 kts | 358° |
| 2026-04-07 15:39 | 16.74065 | -22.94898 | 179 ft | 31 kts | 1° |
| 2026-04-07 15:40 | 16.74198 | -22.94890 | 177 ft | 11 kts | 22° |
| 2026-04-07 15:40 | 16.74250 | -22.94830 | 178 ft | 12 kts | 59° |
| 2026-04-07 15:40 | 16.74294 | -22.94755 | 179 ft | 13 kts | 58° |
| 2026-04-07 15:40 | 16.74261 | -22.94702 | 181 ft | 10 kts | 174° |
| 2026-04-07 15:41 | 16.74172 | -22.94700 | 181 ft | 16 kts | 179° |
| 2026-04-07 15:41 | 16.74062 | -22.94699 | 180 ft | 15 kts | 180° |
| 2026-04-07 15:41 | 16.73957 | -22.94698 | 180 ft | 15 kts | 180° |
| 2026-04-07 15:41 | 16.73857 | -22.94699 | 180 ft | 14 kts | 180° |
| 2026-04-07 15:42 | 16.73755 | -22.94698 | 181 ft | 15 kts | 180° |
| 2026-04-07 15:42 | 16.73657 | -22.94695 | 181 ft | 13 kts | 168° |
| 2026-04-07 15:42 | 16.73536 | -22.94597 | 181 ft | 12 kts | 178° |
| 2026-04-07 15:43 | 16.73456 | -22.94597 | 181 ft | 11 kts | 180° |
| 2026-04-07 15:43 | 16.73379 | -22.94597 | 181 ft | 11 kts | 179° |
| 2026-04-07 15:43 | 16.73304 | -22.94595 | 181 ft | 11 kts | 180° |
| 2026-04-07 15:43 | 16.73247 | -22.94594 | 182 ft | 5 kts | 167° |
| 2026-04-07 15:44 | 16.73236 | -22.94568 | 181 ft | 4 kts | 99° |
| 2026-04-07 15:44 | 16.73235 | -22.94534 | 181 ft | 5 kts | 89° |
| 2026-04-07 15:44 | 16.73235 | -22.94495 | 181 ft | 0 kts | 90° |
| 2026-04-07 15:44 | 16.73235 | -22.94494 | 181 ft | 0 kts | 90° |